createdAt,value
2022-11-25T00:03:07.449Z,15.187
2022-11-25T00:06:48.134Z,15.125
2022-11-25T00:10:28.797Z,15.062
2022-11-25T00:14:08.754Z,15.062
2022-11-25T00:17:49.519Z,15.062
2022-11-25T00:21:29.691Z,15.0
2022-11-25T00:25:15.082Z,15.0
2022-11-25T00:28:55.063Z,14.937
2022-11-25T00:32:35.939Z,15.0
2022-11-25T00:36:16.689Z,15.125
2022-11-25T00:39:57.065Z,15.187
2022-11-25T00:43:37.083Z,15.187
2022-11-25T00:47:19.250Z,15.187
2022-11-25T00:50:59.445Z,15.187
2022-11-25T00:54:47.374Z,15.125
2022-11-25T00:58:27.767Z,15.125
2022-11-25T01:03:06.918Z,15.062
2022-11-25T01:06:47.125Z,15.0
2022-11-25T01:10:27.932Z,15.0
2022-11-25T01:14:08.491Z,14.937
2022-11-25T01:17:48.836Z,14.937
2022-11-25T01:21:28.722Z,15.062
2022-11-25T01:25:09.343Z,15.187
2022-11-25T01:28:49.726Z,15.25
2022-11-25T01:32:33.526Z,15.25
2022-11-25T01:36:14.131Z,15.25
2022-11-25T01:40:00.358Z,15.25
2022-11-25T01:43:40.713Z,15.25
2022-11-25T01:47:22.172Z,15.25
2022-11-25T01:51:02.633Z,15.25
2022-11-25T01:54:43.734Z,15.187
2022-11-25T01:58:24.514Z,15.187
2022-11-25T02:03:07.536Z,15.187
2022-11-25T02:06:54.670Z,15.187
2022-11-25T02:10:36.438Z,15.187
2022-11-25T02:14:17.408Z,15.187
2022-11-25T02:17:59.147Z,15.125
2022-11-25T02:21:40.092Z,15.125
2022-11-25T02:25:21.713Z,15.125
2022-11-25T02:29:02.820Z,15.125
2022-11-25T02:32:44.065Z,15.125
2022-11-25T02:36:24.919Z,15.062
2022-11-25T02:40:05.145Z,15.062
2022-11-25T02:43:45.174Z,15.062
2022-11-25T02:47:26.384Z,15.062
2022-11-25T02:51:47.505Z,15.062
2022-11-25T02:55:27.779Z,15.0
2022-11-25T02:59:07.694Z,15.0
2022-11-25T03:03:07.240Z,15.0
2022-11-25T03:06:47.437Z,15.0
2022-11-25T03:10:28.325Z,15.0
2022-11-25T03:14:08.444Z,15.0
2022-11-25T03:17:48.955Z,14.937
2022-11-25T03:21:29.661Z,15.0
2022-11-25T03:25:10.428Z,15.125
2022-11-25T03:28:54.013Z,15.187
2022-11-25T03:32:41.143Z,15.187
2022-11-25T03:36:21.537Z,15.187
2022-11-25T03:40:02.241Z,15.187
2022-11-25T03:43:42.685Z,15.125
2022-11-25T03:47:23.897Z,15.062
2022-11-25T03:51:03.809Z,15.125
2022-11-25T03:54:43.664Z,15.125
2022-11-25T03:58:24.148Z,15.125
2022-11-25T04:03:13.970Z,15.125
2022-11-25T04:06:53.842Z,15.125
2022-11-25T04:10:40.827Z,15.062
2022-11-25T04:14:21.163Z,15.062
2022-11-25T04:18:01.900Z,15.062
2022-11-25T04:21:42.043Z,15.062
2022-11-25T04:25:27.364Z,15.0
2022-11-25T04:29:07.855Z,15.0
2022-11-25T04:32:48.530Z,15.0
2022-11-25T04:36:35.508Z,15.0
2022-11-25T04:40:15.457Z,14.937
2022-11-25T04:43:59.338Z,14.937
2022-11-25T04:48:53.571Z,15.125
2022-11-25T04:52:33.884Z,15.312
2022-11-25T04:56:14.750Z,15.437
2022-11-25T04:59:54.836Z,15.437
2022-11-25T05:03:08.209Z,15.437
2022-11-25T05:08:35.951Z,15.437
2022-11-25T05:12:16.157Z,15.375
2022-11-25T05:15:56.591Z,15.375
2022-11-25T05:19:37.626Z,15.312
2022-11-25T05:23:17.570Z,15.25
2022-11-25T05:26:57.783Z,15.187
2022-11-25T05:30:44.937Z,15.187
2022-11-25T05:34:25.543Z,15.125
2022-11-25T05:38:12.822Z,15.125
2022-11-25T05:41:53.099Z,15.125
2022-11-25T05:45:33.318Z,15.062
2022-11-25T05:49:13.933Z,15.062
2022-11-25T05:52:54.203Z,15.062
2022-11-25T05:56:37.884Z,15.0
2022-11-25T06:03:13.760Z,15.0
2022-11-25T06:06:54.466Z,14.937
2022-11-25T06:10:40.884Z,14.937
2022-11-25T06:14:20.914Z,15.125
2022-11-25T06:18:01.764Z,15.312
2022-11-25T06:21:41.925Z,15.375
2022-11-25T06:25:35.757Z,15.437
2022-11-25T06:29:53.481Z,15.437
2022-11-25T06:33:34.070Z,15.375
2022-11-25T06:37:14.814Z,15.375
2022-11-25T06:40:59.165Z,15.312
2022-11-25T06:44:40.769Z,15.25
2022-11-25T06:48:21.949Z,15.25
2022-11-25T06:52:02.233Z,15.187
2022-11-25T06:55:50.247Z,15.125
2022-11-25T07:03:20.930Z,15.062
2022-11-25T07:07:01.918Z,15.062
2022-11-25T07:10:42.483Z,15.062
2022-11-25T07:14:22.717Z,15.0
2022-11-25T07:18:07.073Z,15.0
2022-11-25T07:21:47.439Z,15.0
2022-11-25T07:25:30.714Z,14.937
2022-11-25T07:29:36.425Z,15.125
2022-11-25T07:34:55.060Z,15.25
2022-11-25T07:38:35.243Z,15.25
2022-11-25T07:42:22.318Z,15.25
2022-11-25T07:46:02.587Z,15.25
2022-11-25T07:49:43.499Z,15.187
2022-11-25T07:53:23.783Z,15.187
2022-11-25T07:57:03.855Z,15.125
2022-11-25T08:03:07.093Z,15.062
2022-11-25T08:06:53.306Z,15.062
2022-11-25T08:10:34.414Z,15.062
2022-11-25T08:14:14.624Z,15.0
2022-11-25T08:17:55.634Z,15.0
2022-11-25T08:21:35.938Z,15.0
2022-11-25T08:25:16.413Z,15.0
2022-11-25T08:28:56.643Z,15.062
2022-11-25T08:32:43.650Z,15.125
2022-11-25T08:36:24.855Z,15.125
2022-11-25T08:40:39.994Z,15.187
2022-11-25T08:44:20.136Z,15.125
2022-11-25T08:48:01.116Z,15.125
2022-11-25T08:51:41.171Z,15.125
2022-11-25T08:55:21.475Z,15.125
2022-11-25T08:59:08.886Z,15.062
2022-11-25T09:03:08.007Z,15.062
2022-11-25T09:06:48.665Z,15.0
2022-11-25T09:10:30.159Z,15.0
2022-11-25T09:14:12.434Z,15.0
2022-11-25T09:17:56.244Z,15.0
2022-11-25T09:21:44.392Z,15.0
2022-11-25T09:25:24.846Z,15.0
2022-11-25T09:29:05.332Z,15.0
2022-11-25T09:32:46.494Z,15.0
2022-11-25T09:36:27.595Z,15.062
2022-11-25T09:40:13.444Z,15.062
2022-11-25T09:43:53.958Z,15.125
2022-11-25T09:47:35.353Z,15.125
2022-11-25T09:51:27.577Z,15.187
2022-11-25T09:55:07.932Z,15.25
2022-11-25T09:58:55.716Z,15.25
2022-11-25T10:03:07.093Z,15.312
2022-11-25T10:06:53.545Z,15.312
2022-11-25T10:10:35.482Z,15.312
2022-11-25T10:14:15.810Z,15.375
2022-11-25T10:17:57.107Z,15.375
2022-11-25T10:21:37.247Z,15.437
2022-11-25T10:25:24.938Z,15.437
2022-11-25T10:29:05.170Z,15.5
2022-11-25T10:32:46.467Z,15.562
2022-11-25T10:36:31.571Z,15.562
2022-11-25T10:40:11.998Z,15.625
2022-11-25T10:43:59.354Z,15.625
2022-11-25T10:48:03.523Z,15.687
2022-11-25T10:51:43.851Z,15.687
2022-11-25T10:55:24.855Z,15.75
2022-11-25T10:59:05.128Z,15.75
2022-11-25T11:03:13.419Z,15.812
2022-11-25T11:06:54.380Z,15.812
2022-11-25T11:10:35.657Z,15.875
2022-11-25T11:14:16.533Z,15.875
2022-11-25T11:18:02.947Z,15.937
2022-11-25T11:21:43.289Z,15.937
2022-11-25T11:25:24.763Z,16.0
2022-11-25T11:29:07.379Z,16.0
2022-11-25T11:32:52.509Z,16.062
2022-11-25T11:36:32.852Z,16.062
2022-11-25T11:40:13.182Z,16.062
2022-11-25T11:43:53.456Z,16.0
2022-11-25T11:47:34.736Z,16.062
2022-11-25T11:51:22.631Z,16.062
2022-11-25T11:55:03.261Z,16.062
2022-11-25T11:59:32.333Z,16.062
2022-11-25T12:03:07.630Z,16.125
2022-11-25T12:06:48.928Z,16.062
2022-11-25T12:10:30.182Z,16.125
2022-11-25T12:14:10.486Z,16.125
2022-11-25T12:17:51.019Z,16.125
2022-11-25T12:21:31.389Z,16.125
2022-11-25T12:25:17.492Z,16.187
2022-11-25T12:28:57.716Z,16.187
2022-11-25T12:32:45.745Z,16.25
2022-11-25T12:36:26.815Z,16.312
2022-11-25T12:40:10.019Z,16.312
2022-11-25T12:43:50.203Z,16.312
2022-11-25T12:47:31.707Z,16.25
2022-11-25T12:51:17.873Z,16.25
2022-11-25T12:54:58.557Z,16.25
2022-11-25T12:58:39.367Z,16.187
2022-11-25T13:03:45.557Z,16.187
2022-11-25T13:07:52.443Z,16.187
2022-11-25T13:11:34.934Z,16.187
2022-11-25T13:15:28.985Z,16.187
2022-11-25T13:19:18.086Z,16.187
2022-11-25T13:22:58.572Z,16.125
2022-11-25T13:26:43.732Z,16.062
2022-11-25T13:30:24.229Z,16.0
2022-11-25T13:34:05.481Z,15.937
2022-11-25T13:37:45.608Z,15.875
2022-11-25T13:41:25.868Z,15.812
2022-11-25T13:45:10.953Z,15.75
2022-11-25T13:48:51.848Z,15.687
2022-11-25T13:53:02.148Z,15.687
2022-11-25T13:56:42.256Z,15.687
2022-11-25T14:03:15.424Z,15.625
2022-11-25T14:06:56.381Z,15.625
2022-11-25T14:10:37.406Z,15.625
2022-11-25T14:14:18.120Z,15.562
2022-11-25T14:17:59.526Z,15.562
2022-11-25T14:22:41.672Z,15.625
2022-11-25T14:26:48.259Z,15.625
2022-11-25T14:30:35.447Z,15.625
2022-11-25T14:34:22.856Z,15.687
2022-11-25T14:38:11.167Z,15.875
2022-11-25T14:41:51.556Z,16.187
2022-11-25T14:45:32.003Z,16.437
2022-11-25T14:49:44.882Z,16.687
2022-11-25T14:54:14.039Z,17.125
2022-11-25T14:57:55.369Z,17.5
2022-11-25T15:03:07.397Z,17.937
2022-11-25T15:07:03.067Z,18.187
2022-11-25T15:10:43.920Z,18.25
2022-11-25T15:14:34.162Z,18.25
2022-11-25T15:18:15.057Z,18.125
2022-11-25T15:22:41.706Z,17.937
2022-11-25T15:26:29.837Z,17.937
2022-11-25T15:30:14.434Z,18.0
2022-11-25T15:33:57.125Z,18.062
2022-11-25T15:37:43.240Z,18.125
2022-11-25T15:41:24.882Z,18.062
2022-11-25T15:45:08.766Z,18.062
2022-11-25T15:48:50.141Z,18.0
2022-11-25T15:52:31.196Z,17.937
2022-11-25T15:56:22.452Z,18.062
2022-11-25T16:03:08.071Z,18.062
2022-11-25T16:06:55.029Z,18.125
2022-11-25T16:10:36.289Z,17.937
2022-11-25T16:14:16.679Z,17.875
2022-11-25T16:18:11.770Z,17.937
2022-11-25T16:22:22.298Z,18.125
2022-11-25T16:26:02.820Z,18.312
2022-11-25T16:29:44.404Z,18.25
2022-11-25T16:33:31.380Z,18.125
2022-11-25T16:37:12.401Z,18.0
2022-11-25T16:40:52.728Z,17.875
2022-11-25T16:44:40.817Z,17.875
2022-11-25T16:48:22.195Z,18.062
2022-11-25T16:52:05.933Z,18.187
2022-11-25T16:55:46.587Z,18.187
2022-11-25T16:59:26.886Z,18.125
2022-11-25T17:03:08.731Z,18.0
2022-11-25T17:09:14.480Z,17.875
2022-11-25T17:12:54.966Z,17.937
2022-11-25T17:16:39.274Z,18.062
2022-11-25T17:20:22.466Z,18.187
2022-11-25T17:24:15.741Z,18.187
2022-11-25T17:28:03.185Z,18.125
2022-11-25T17:31:43.816Z,18.062
2022-11-25T17:35:31.473Z,17.875
2022-11-25T17:39:11.951Z,17.875
2022-11-25T17:42:52.183Z,18.0
2022-11-25T17:46:40.356Z,18.187
2022-11-25T17:50:20.963Z,18.187
2022-11-25T17:54:02.330Z,18.187
2022-11-25T17:57:42.555Z,18.125
2022-11-25T18:03:08.323Z,17.937
2022-11-25T18:06:53.838Z,17.875
2022-11-25T18:10:35.197Z,18.0
2022-11-25T18:14:20.029Z,18.125
2022-11-25T18:18:00.991Z,18.125
2022-11-25T18:21:46.721Z,18.062
2022-11-25T18:25:35.692Z,17.937
2022-11-25T18:29:16.187Z,17.875
2022-11-25T18:33:04.076Z,17.937
2022-11-25T18:36:44.564Z,18.062
2022-11-25T18:40:25.056Z,18.187
2022-11-25T18:44:05.566Z,18.187
2022-11-25T18:47:46.850Z,18.125
2022-11-25T18:51:34.353Z,18.062
2022-11-25T18:55:15.284Z,17.937
2022-11-25T18:59:01.029Z,17.875
2022-11-25T19:03:31.664Z,18.0
2022-11-25T19:07:12.651Z,18.187
2022-11-25T19:11:00.974Z,18.25
2022-11-25T19:14:41.219Z,18.25
2022-11-25T19:18:22.076Z,18.125
2022-11-25T19:22:02.754Z,18.062
2022-11-25T19:25:49.586Z,17.937
2022-11-25T19:29:29.942Z,17.875
2022-11-25T19:33:17.352Z,18.062
2022-11-25T19:36:57.939Z,18.25
2022-11-25T19:40:39.588Z,18.375
2022-11-25T19:44:20.068Z,18.312
2022-11-25T19:48:45.089Z,18.125
2022-11-25T19:52:25.757Z,18.0
2022-11-25T19:56:11.982Z,17.937
2022-11-25T19:59:52.644Z,18.062
2022-11-25T20:03:08.336Z,18.187
2022-11-25T20:06:48.734Z,18.125
2022-11-25T20:10:37.780Z,18.062
2022-11-25T20:14:18.093Z,17.937
2022-11-25T20:17:59.142Z,17.875
2022-11-25T20:21:46.941Z,18.0
2022-11-25T20:25:35.031Z,18.25
2022-11-25T20:29:15.416Z,18.25
2022-11-25T20:33:06.379Z,18.187
2022-11-25T20:36:53.462Z,18.062
2022-11-25T20:40:34.423Z,18.0
2022-11-25T20:44:21.877Z,17.937
2022-11-25T20:48:02.900Z,17.937
2022-11-25T20:51:44.046Z,18.125
2022-11-25T20:55:25.216Z,18.25
2022-11-25T20:59:05.443Z,18.187
2022-11-25T21:03:07.960Z,18.187
2022-11-25T21:06:48.486Z,18.062
2022-11-25T21:10:29.606Z,17.937
2022-11-25T21:14:11.530Z,17.875
2022-11-25T21:17:52.788Z,18.0
2022-11-25T21:21:33.107Z,18.187
2022-11-25T21:25:19.644Z,18.25
2022-11-25T21:29:06.035Z,18.187
2022-11-25T21:32:52.300Z,18.125
2022-11-25T21:36:32.773Z,18.062
2022-11-25T21:40:13.021Z,17.937
2022-11-25T21:43:58.815Z,17.875
2022-11-25T21:47:39.666Z,18.0
2022-11-25T21:51:20.071Z,18.187
2022-11-25T21:55:06.961Z,18.312
2022-11-25T21:58:47.542Z,18.25
2022-11-25T22:03:06.325Z,18.187
2022-11-25T22:06:47.312Z,18.125
2022-11-25T22:10:28.293Z,18.0
2022-11-25T22:14:15.599Z,17.875
2022-11-25T22:17:56.739Z,17.75
2022-11-25T22:21:42.256Z,17.687
2022-11-25T22:25:23.225Z,17.625
2022-11-25T22:29:03.906Z,17.5
2022-11-25T22:32:50.465Z,17.437
2022-11-25T22:36:31.576Z,17.375
2022-11-25T22:40:18.526Z,17.312
2022-11-25T22:43:58.757Z,17.312
2022-11-25T22:47:39.824Z,17.25
2022-11-25T22:51:20.373Z,17.25
2022-11-25T22:55:01.004Z,17.187
2022-11-25T22:58:48.493Z,17.125
2022-11-25T23:03:08.317Z,17.062
2022-11-25T23:06:55.886Z,17.062
2022-11-25T23:10:37.189Z,17.0
2022-11-25T23:14:23.383Z,17.0
2022-11-25T23:18:04.369Z,16.937
2022-11-25T23:21:44.856Z,16.937
2022-11-25T23:25:25.876Z,16.875
2022-11-25T23:29:12.632Z,16.875
2022-11-25T23:32:53.257Z,16.812
2022-11-25T23:36:39.457Z,16.812
2022-11-25T23:40:19.905Z,16.687
2022-11-25T23:44:00.623Z,16.625
2022-11-25T23:47:41.737Z,16.625
2022-11-25T23:51:21.946Z,16.562
2022-11-25T23:55:03.509Z,16.562
2022-11-25T23:58:44.118Z,16.562
